Time;durP1;ratioP1;P1;durP2;ratioP2;P2;SDS_P1;SDS_P2;PMS_P1;PMS_P2;Temp;Humidity;BMP_temperature;BMP_pressure;BME280_temperature;BME280_humidity;BME280_pressure;Samples;Min_cycle;Max_cycle;Signal;HPM_P1;HPM_P2
2023/12/17 00:00:51;;;;;;;9.53;3.90;;;;;;;;;;10353068;28;20632;-75
2023/12/17 00:05:52;;;;;;;8.48;4.15;;;;;;;;;;10357645;28;20209;-75
2023/12/17 00:10:52;;;;;;;9.40;4.57;;;;;;;;;;10356342;28;20297;-74
2023/12/17 00:15:52;;;;;;;11.93;4.83;;;;;;;;;;10357137;28;20237;-75
2023/12/17 00:20:52;;;;;;;9.33;4.70;;;;;;;;;;10356880;28;20445;-75
2023/12/17 00:25:52;;;;;;;9.67;4.33;;;;;;;;;;10349300;28;20218;-75
2023/12/17 00:30:53;;;;;;;11.53;4.50;;;;;;;;;;10357023;28;20190;-75
2023/12/17 00:35:54;;;;;;;9.83;4.77;;;;;;;;;;10356659;28;20336;-75
2023/12/17 00:40:54;;;;;;;7.73;5.30;;;;;;;;;;10354752;28;20277;-74
2023/12/17 00:45:55;;;;;;;8.87;4.23;;;;;;;;;;10356416;28;20224;-75
2023/12/17 00:50:55;;;;;;;9.40;4.07;;;;;;;;;;10351927;28;20652;-75
2023/12/17 00:55:55;;;;;;;11.53;4.97;;;;;;;;;;10348850;28;20722;-75
2023/12/17 01:00:55;;;;;;;10.20;4.10;;;;;;;;;;10356213;28;20222;-74
2023/12/17 01:05:55;;;;;;;10.27;4.03;;;;;;;;;;10355359;28;20218;-75
2023/12/17 01:10:56;;;;;;;12.47;4.37;;;;;;;;;;10351102;28;20186;-74
2023/12/17 01:15:56;;;;;;;10.53;3.80;;;;;;;;;;10354949;28;20194;-75
2023/12/17 01:20:58;;;;;;;8.90;3.67;;;;;;;;;;10356175;28;20198;-75
2023/12/17 01:25:58;;;;;;;10.67;3.83;;;;;;;;;;10354860;28;20372;-75
2023/12/17 01:30:58;;;;;;;5.13;2.70;;;;;;;;;;10348697;28;20221;-75
2023/12/17 01:35:58;;;;;;;5.47;2.77;;;;;;;;;;10354954;28;20256;-74
2023/12/17 01:40:58;;;;;;;9.93;3.00;;;;;;;;;;10354714;28;20225;-75
2023/12/17 01:45:59;;;;;;;8.40;3.00;;;;;;;;;;10354925;28;20220;-75
2023/12/17 01:50:59;;;;;;;7.20;2.33;;;;;;;;;;10354912;28;20193;-74
2023/12/17 01:56:00;;;;;;;9.10;2.77;;;;;;;;;;10353856;28;20197;-75
2023/12/17 02:01:01;;;;;;;8.10;3.47;;;;;;;;;;10352611;28;20448;-74
2023/12/17 02:06:01;;;;;;;6.83;2.83;;;;;;;;;;10353632;28;20209;-75
2023/12/17 02:11:02;;;;;;;6.40;2.80;;;;;;;;;;10353141;28;20189;-75
2023/12/17 02:16:02;;;;;;;7.90;2.67;;;;;;;;;;10352233;28;20235;-75
2023/12/17 02:21:02;;;;;;;8.40;2.97;;;;;;;;;;10355483;28;20185;-75
2023/12/17 02:26:03;;;;;;;7.80;2.77;;;;;;;;;;10352676;28;20525;-75
2023/12/17 02:31:03;;;;;;;9.70;3.00;;;;;;;;;;10353633;28;20193;-75
2023/12/17 02:36:04;;;;;;;7.87;2.87;;;;;;;;;;10353040;28;20193;-75
2023/12/17 02:41:04;;;;;;;6.27;2.40;;;;;;;;;;10353933;28;20452;-74
2023/12/17 02:46:04;;;;;;;5.87;2.57;;;;;;;;;;10360321;28;20228;-75
2023/12/17 02:51:05;;;;;;;4.25;2.47;;;;;;;;;;10358347;28;20474;-74
2023/12/17 02:56:05;;;;;;;7.03;1.90;;;;;;;;;;10361198;28;20197;-74
2023/12/17 03:01:05;;;;;;;4.67;2.60;;;;;;;;;;10361695;28;20577;-74
2023/12/17 03:06:05;;;;;;;3.57;2.00;;;;;;;;;;10360644;28;20233;-74
2023/12/17 03:11:06;;;;;;;5.43;2.17;;;;;;;;;;10360972;28;20204;-74
2023/12/17 03:16:09;;;;;;;6.60;3.23;;;;;;;;;;10357149;28;20296;-75
2023/12/17 03:21:09;;;;;;;2.50;1.70;;;;;;;;;;10360339;28;20201;-74
2023/12/17 03:26:09;;;;;;;6.47;2.30;;;;;;;;;;10359905;28;20225;-74
2023/12/17 03:31:16;;;;;;;5.27;2.10;;;;;;;;;;10360496;28;20942;-74
2023/12/17 03:36:16;;;;;;;5.07;1.87;;;;;;;;;;10359021;28;20745;-74
2023/12/17 03:41:23;;;;;;;4.30;1.80;;;;;;;;;;10359895;28;20208;-74
2023/12/17 03:46:24;;;;;;;2.03;1.30;;;;;;;;;;10359471;28;20225;-75
2023/12/17 03:51:24;;;;;;;4.47;2.07;;;;;;;;;;10355148;28;20189;-74
2023/12/17 03:56:25;;;;;;;1.77;1.60;;;;;;;;;;10355000;28;20189;-75
2023/12/17 04:01:25;;;;;;;3.50;1.80;;;;;;;;;;10358675;28;20723;-74
2023/12/17 04:06:25;;;;;;;3.83;1.70;;;;;;;;;;10356548;28;20217;-74
2023/12/17 04:11:25;;;;;;;5.03;1.70;;;;;;;;;;10356084;28;20647;-74
2023/12/17 04:16:25;;;;;;;4.90;1.60;;;;;;;;;;10357839;28;20200;-75
2023/12/17 04:21:26;;;;;;;4.30;1.43;;;;;;;;;;10357318;28;20607;-75
2023/12/17 04:26:26;;;;;;;2.50;1.43;;;;;;;;;;10354427;28;20233;-75
2023/12/17 04:31:26;;;;;;;3.83;1.53;;;;;;;;;;10357414;28;20185;-75
2023/12/17 04:36:26;;;;;;;3.80;1.80;;;;;;;;;;10356320;28;20681;-75
2023/12/17 04:41:26;;;;;;;2.00;1.47;;;;;;;;;;10357185;28;20209;-75
2023/12/17 04:46:28;;;;;;;2.27;1.43;;;;;;;;;;10352230;28;20217;-75
2023/12/17 04:51:29;;;;;;;3.13;1.53;;;;;;;;;;10345400;28;20198;-75
2023/12/17 04:56:29;;;;;;;3.60;1.83;;;;;;;;;;10355013;28;20194;-75
2023/12/17 05:01:29;;;;;;;1.70;1.40;;;;;;;;;;10361236;28;20224;-75
2023/12/17 05:06:29;;;;;;;2.93;1.40;;;;;;;;;;10362117;28;20570;-75
2023/12/17 05:11:29;;;;;;;2.13;1.60;;;;;;;;;;10362757;28;20177;-75
2023/12/17 05:16:30;;;;;;;1.90;1.20;;;;;;;;;;10352564;28;20517;-75
2023/12/17 05:21:30;;;;;;;3.03;1.30;;;;;;;;;;10362320;28;20190;-75
2023/12/17 05:26:30;;;;;;;3.60;1.50;;;;;;;;;;10361528;28;20983;-75
2023/12/17 05:31:30;;;;;;;2.37;1.20;;;;;;;;;;10377014;28;20281;-75
2023/12/17 05:36:30;;;;;;;1.97;1.17;;;;;;;;;;10361536;28;20193;-75
2023/12/17 05:41:31;;;;;;;2.73;1.30;;;;;;;;;;10361416;28;20250;-75
2023/12/17 05:46:31;;;;;;;4.87;1.30;;;;;;;;;;10360756;28;20678;-75
2023/12/17 05:51:31;;;;;;;0.97;0.90;;;;;;;;;;10360330;28;20189;-75
2023/12/17 05:56:37;;;;;;;1.27;1.03;;;;;;;;;;10360987;28;20273;-75
2023/12/17 06:01:37;;;;;;;2.13;1.27;;;;;;;;;;10360971;28;20193;-75
2023/12/17 06:06:37;;;;;;;2.50;1.30;;;;;;;;;;10361139;28;20597;-75
2023/12/17 06:11:38;;;;;;;3.13;1.37;;;;;;;;;;10361251;28;21104;-75
2023/12/17 06:16:44;;;;;;;3.80;1.20;;;;;;;;;;10359823;28;20646;-75
2023/12/17 06:21:44;;;;;;;2.47;1.27;;;;;;;;;;10360564;28;20210;-75
2023/12/17 06:26:44;;;;;;;2.30;1.30;;;;;;;;;;10359996;28;20382;-75
2023/12/17 06:31:45;;;;;;;3.20;1.30;;;;;;;;;;10360591;28;20208;-75
2023/12/17 06:36:45;;;;;;;1.30;1.20;;;;;;;;;;10359733;28;20457;-76
2023/12/17 06:41:45;;;;;;;7.43;1.60;;;;;;;;;;10360441;28;20213;-75
2023/12/17 06:46:45;;;;;;;2.97;1.43;;;;;;;;;;10321049;28;20225;-75
2023/12/17 06:51:45;;;;;;;3.47;1.50;;;;;;;;;;10316812;28;20442;-75
2023/12/17 06:56:46;;;;;;;2.53;1.33;;;;;;;;;;10331613;28;20500;-75
2023/12/17 07:01:46;;;;;;;4.40;1.60;;;;;;;;;;10315804;28;20696;-75
2023/12/17 07:06:46;;;;;;;4.20;1.60;;;;;;;;;;10329515;28;20291;-76
2023/12/17 07:11:46;;;;;;;3.17;2.20;;;;;;;;;;10316518;28;20209;-75
2023/12/17 07:16:47;;;;;;;3.40;2.00;;;;;;;;;;10342006;28;20190;-75
2023/12/17 07:21:48;;;;;;;2.23;1.80;;;;;;;;;;10359845;28;20205;-75
2023/12/17 07:26:51;;;;;;;36.47;17.33;;;;;;;;;;10359098;28;20233;-75
2023/12/17 07:31:51;;;;;;;5.80;4.80;;;;;;;;;;10366881;28;20190;-75
2023/12/17 07:36:51;;;;;;;3.10;2.00;;;;;;;;;;10352374;28;20205;-75
2023/12/17 07:41:51;;;;;;;5.13;3.13;;;;;;;;;;10350280;28;20181;-75
2023/12/17 07:46:51;;;;;;;8.10;2.90;;;;;;;;;;10352592;28;20585;-75
2023/12/17 07:51:52;;;;;;;3.50;2.23;;;;;;;;;;10366689;28;20312;-75
2023/12/17 07:56:53;;;;;;;3.10;2.47;;;;;;;;;;10324638;28;20185;-75
2023/12/17 08:01:53;;;;;;;5.10;2.77;;;;;;;;;;10323810;28;20585;-74
2023/12/17 08:06:53;;;;;;;4.50;3.00;;;;;;;;;;10320030;28;20222;-74
2023/12/17 08:11:53;;;;;;;5.83;2.30;;;;;;;;;;10336364;28;20490;-72
2023/12/17 08:16:55;;;;;;;6.13;2.23;;;;;;;;;;10380135;28;20718;-74
2023/12/17 08:21:56;;;;;;;4.20;2.30;;;;;;;;;;10356069;28;20683;-75
2023/12/17 08:26:59;;;;;;;4.95;2.65;;;;;;;;;;10364333;28;20344;-75
2023/12/17 08:31:59;;;;;;;4.70;3.13;;;;;;;;;;10349795;28;20197;-75
2023/12/17 08:36:59;;;;;;;4.30;3.30;;;;;;;;;;10360600;28;20652;-76
2023/12/17 08:42:01;;;;;;;3.63;2.83;;;;;;;;;;10360452;28;20210;-75
2023/12/17 08:47:01;;;;;;;6.23;4.43;;;;;;;;;;10343568;28;20617;-75
2023/12/17 08:52:01;;;;;;;6.87;4.00;;;;;;;;;;10362836;28;20444;-75
2023/12/17 08:57:01;;;;;;;14.07;7.27;;;;;;;;;;10362652;28;20224;-74
2023/12/17 09:02:02;;;;;;;17.43;13.67;;;;;;;;;;10364307;28;20180;-74
2023/12/17 09:07:02;;;;;;;10.23;5.40;;;;;;;;;;10360946;28;20686;-74
2023/12/17 09:12:02;;;;;;;8.80;5.38;;;;;;;;;;10363789;28;20448;-74
2023/12/17 09:17:03;;;;;;;9.95;4.70;;;;;;;;;;10345428;28;20221;-74
2023/12/17 09:22:03;;;;;;;4.40;1.90;;;;;;;;;;10343062;28;20630;-73
2023/12/17 09:27:03;;;;;;;8.82;4.68;;;;;;;;;;10338266;28;20240;-73
2023/12/17 09:32:04;;;;;;;8.27;3.08;;;;;;;;;;10346137;28;20659;-73
2023/12/17 09:37:04;;;;;;;3.03;1.83;;;;;;;;;;10359398;28;20920;-73
2023/12/17 09:42:04;;;;;;;2.67;1.42;;;;;;;;;;10362517;28;20190;-73
2023/12/17 09:47:04;;;;;;;4.80;1.50;;;;;;;;;;10363728;28;20197;-73
2023/12/17 09:52:06;;;;;;;4.53;2.00;;;;;;;;;;10354091;28;20227;-73
2023/12/17 09:57:07;;;;;;;4.93;1.70;;;;;;;;;;10362174;28;20263;-72
2023/12/17 10:02:11;;;;;;;2.20;1.60;;;;;;;;;;10362602;28;20618;-73
2023/12/17 10:07:11;;;;;;;4.57;1.50;;;;;;;;;;10356481;28;20197;-74
2023/12/17 10:12:13;;;;;;;4.47;1.50;;;;;;;;;;10348489;28;20556;-74
2023/12/17 10:17:16;;;;;;;3.23;1.20;;;;;;;;;;10345667;28;20709;-74
2023/12/17 10:22:17;;;;;;;2.92;1.55;;;;;;;;;;10356917;28;20572;-74
2023/12/17 10:27:18;;;;;;;2.63;1.10;;;;;;;;;;10360398;28;20232;-74
2023/12/17 10:32:23;;;;;;;2.13;1.50;;;;;;;;;;10361447;28;20685;-75
2023/12/17 10:37:24;;;;;;;3.33;1.60;;;;;;;;;;10359985;28;20279;-74
2023/12/17 10:42:24;;;;;;;2.22;1.23;;;;;;;;;;10360962;28;20239;-74
2023/12/17 10:47:24;;;;;;;3.03;1.60;;;;;;;;;;10361120;28;20550;-74
2023/12/17 10:52:25;;;;;;;2.22;1.30;;;;;;;;;;10360840;28;20557;-74
2023/12/17 10:57:26;;;;;;;2.30;1.55;;;;;;;;;;10360355;28;20680;-74
2023/12/17 11:02:26;;;;;;;2.25;1.08;;;;;;;;;;10361724;28;20185;-74
2023/12/17 11:07:26;;;;;;;2.30;1.63;;;;;;;;;;10368444;28;20201;-74
2023/12/17 11:12:27;;;;;;;3.40;1.63;;;;;;;;;;10365364;28;20308;-74
2023/12/17 11:17:27;;;;;;;3.08;1.15;;;;;;;;;;10368405;28;20369;-74
2023/12/17 11:22:27;;;;;;;3.15;1.20;;;;;;;;;;10367424;28;20189;-74
2023/12/17 11:27:30;;;;;;;5.28;1.65;;;;;;;;;;10367585;28;20706;-74
2023/12/17 11:32:30;;;;;;;1.92;1.42;;;;;;;;;;10368048;28;20188;-74
2023/12/17 11:37:34;;;;;;;3.22;1.55;;;;;;;;;;10367183;28;20224;-74
2023/12/17 11:42:40;;;;;;;2.65;1.50;;;;;;;;;;10367146;28;20177;-74
2023/12/17 11:47:40;;;;;;;4.32;1.45;;;;;;;;;;10367045;28;20198;-75
2023/12/17 11:52:40;;;;;;;3.17;1.60;;;;;;;;;;10367117;28;20186;-75
2023/12/17 11:57:40;;;;;;;2.15;1.60;;;;;;;;;;10365820;28;20686;-74
2023/12/17 12:02:40;;;;;;;2.40;1.50;;;;;;;;;;10366922;28;20193;-74
2023/12/17 12:07:41;;;;;;;3.63;1.67;;;;;;;;;;10366015;28;20185;-74
2023/12/17 12:12:41;;;;;;;2.67;1.55;;;;;;;;;;10366409;28;20652;-74
2023/12/17 12:17:42;;;;;;;2.17;1.50;;;;;;;;;;10364139;28;20212;-74
2023/12/17 12:22:42;;;;;;;3.28;1.52;;;;;;;;;;10365850;28;20205;-74
2023/12/17 12:27:44;;;;;;;2.53;1.55;;;;;;;;;;10365300;28;20232;-74
2023/12/17 12:32:44;;;;;;;1.85;1.50;;;;;;;;;;10365228;28;20301;-74
2023/12/17 12:37:44;;;;;;;2.83;1.73;;;;;;;;;;10364694;28;20213;-74
2023/12/17 12:42:44;;;;;;;3.20;1.50;;;;;;;;;;10365350;28;20197;-74
2023/12/17 12:47:44;;;;;;;1.70;1.45;;;;;;;;;;10364819;28;20197;-74
2023/12/17 12:52:45;;;;;;;2.25;1.33;;;;;;;;;;10364735;28;21237;-74
2023/12/17 12:57:45;;;;;;;3.17;1.20;;;;;;;;;;10364091;28;20583;-74
2023/12/17 13:02:46;;;;;;;2.72;1.50;;;;;;;;;;10364341;28;20537;-74
2023/12/17 13:07:46;;;;;;;2.38;1.70;;;;;;;;;;10364192;28;20190;-73
2023/12/17 13:12:46;;;;;;;16.60;10.50;;;;;;;;;;10364679;28;20292;-74
2023/12/17 13:17:46;;;;;;;4.38;1.80;;;;;;;;;;10362855;28;20226;-73
2023/12/17 13:22:46;;;;;;;2.47;2.03;;;;;;;;;;10364266;28;20185;-74
2023/12/17 13:27:47;;;;;;;2.25;1.77;;;;;;;;;;10362940;28;20733;-73
2023/12/17 13:32:47;;;;;;;2.60;1.42;;;;;;;;;;10363196;28;20679;-73
2023/12/17 13:37:47;;;;;;;3.70;1.52;;;;;;;;;;10362543;28;20818;-73
2023/12/17 13:42:50;;;;;;;1.98;1.33;;;;;;;;;;10363233;28;20292;-74
2023/12/17 13:47:51;;;;;;;2.65;1.60;;;;;;;;;;10358561;28;20272;-73
2023/12/17 13:52:51;;;;;;;2.75;1.42;;;;;;;;;;10356740;28;20252;-74
2023/12/17 13:57:51;;;;;;;2.03;1.30;;;;;;;;;;10362435;28;20209;-73
2023/12/17 14:02:51;;;;;;;2.55;1.48;;;;;;;;;;10362068;28;20628;-74
2023/12/17 14:07:51;;;;;;;3.20;1.23;;;;;;;;;;10361189;28;20197;-74
2023/12/17 14:12:53;;;;;;;2.10;1.42;;;;;;;;;;10360402;28;20189;-74
2023/12/17 14:17:53;;;;;;;4.77;1.73;;;;;;;;;;10361287;28;20217;-74
2023/12/17 14:22:53;;;;;;;3.22;1.55;;;;;;;;;;10362228;28;20185;-74
2023/12/17 14:27:54;;;;;;;2.47;1.10;;;;;;;;;;10360741;28;20260;-74
2023/12/17 14:32:55;;;;;;;2.47;2.23;;;;;;;;;;10361047;28;20367;-74
2023/12/17 14:37:55;;;;;;;2.40;1.67;;;;;;;;;;10360463;28;20279;-74
2023/12/17 14:42:55;;;;;;;1.73;1.20;;;;;;;;;;10361089;28;20432;-74
2023/12/17 14:47:55;;;;;;;2.00;1.13;;;;;;;;;;10360477;28;20193;-74
2023/12/17 14:52:55;;;;;;;7.73;4.53;;;;;;;;;;10361105;28;20197;-74
2023/12/17 14:57:55;;;;;;;2.87;2.20;;;;;;;;;;10360535;28;20266;-74
2023/12/17 15:02:56;;;;;;;2.23;1.77;;;;;;;;;;10361004;28;20657;-74
2023/12/17 15:07:56;;;;;;;2.97;1.33;;;;;;;;;;10360436;28;20323;-74
2023/12/17 15:12:56;;;;;;;2.70;1.60;;;;;;;;;;10356280;28;20671;-74
2023/12/17 15:17:58;;;;;;;1.77;1.30;;;;;;;;;;10360425;28;20216;-74
2023/12/17 15:22:58;;;;;;;2.70;1.30;;;;;;;;;;10357263;28;20181;-74
2023/12/17 15:27:58;;;;;;;3.47;1.97;;;;;;;;;;10354886;28;20706;-74
2023/12/17 15:32:59;;;;;;;1.77;1.47;;;;;;;;;;10360128;28;20204;-74
2023/12/17 15:37:59;;;;;;;1.83;1.20;;;;;;;;;;10360229;28;20224;-74
2023/12/17 15:42:59;;;;;;;2.57;1.50;;;;;;;;;;10360145;28;20197;-74
2023/12/17 15:48:00;;;;;;;1.17;1.03;;;;;;;;;;10358765;28;20189;-74
2023/12/17 15:53:00;;;;;;;1.27;1.17;;;;;;;;;;10366668;28;20189;-74
2023/12/17 15:58:00;;;;;;;2.20;1.63;;;;;;;;;;10365931;28;20213;-74
2023/12/17 16:03:01;;;;;;;2.43;1.93;;;;;;;;;;10367236;28;20646;-74
2023/12/17 16:08:03;;;;;;;7.77;4.90;;;;;;;;;;10365595;28;20193;-74
2023/12/17 16:13:04;;;;;;;5.03;2.40;;;;;;;;;;10366497;28;20189;-74
2023/12/17 16:18:04;;;;;;;3.17;1.67;;;;;;;;;;10366396;28;20239;-74
2023/12/17 16:23:04;;;;;;;2.00;1.00;;;;;;;;;;10366046;28;20200;-74
2023/12/17 16:28:05;;;;;;;2.53;1.70;;;;;;;;;;10364678;28;20236;-74
2023/12/17 16:33:05;;;;;;;7.20;4.33;;;;;;;;;;10366137;28;20251;-74
2023/12/17 16:38:06;;;;;;;5.17;3.27;;;;;;;;;;10365299;28;20244;-74
2023/12/17 16:43:06;;;;;;;6.50;3.00;;;;;;;;;;10365584;28;20627;-74
2023/12/17 16:48:06;;;;;;;4.60;1.40;;;;;;;;;;10364579;28;20312;-74
2023/12/17 16:53:07;;;;;;;3.17;1.77;;;;;;;;;;10365319;28;20204;-74
2023/12/17 16:58:07;;;;;;;9.03;3.90;;;;;;;;;;10364604;28;20217;-74
2023/12/17 17:03:07;;;;;;;4.10;1.93;;;;;;;;;;10363914;28;20271;-75
2023/12/17 17:08:08;;;;;;;6.50;4.10;;;;;;;;;;10365252;28;20240;-75
2023/12/17 17:13:11;;;;;;;3.03;2.13;;;;;;;;;;10364374;28;20201;-75
2023/12/17 17:18:14;;;;;;;9.20;5.53;;;;;;;;;;10362801;28;20221;-75
2023/12/17 17:23:18;;;;;;;3.07;2.27;;;;;;;;;;10353526;28;20194;-75
2023/12/17 17:28:18;;;;;;;4.70;2.77;;;;;;;;;;10362279;28;20232;-75
2023/12/17 17:33:21;;;;;;;4.53;3.33;;;;;;;;;;10362728;28;20201;-75
2023/12/17 17:38:21;;;;;;;2.33;1.70;;;;;;;;;;10361906;28;20475;-75
2023/12/17 17:43:21;;;;;;;4.50;1.90;;;;;;;;;;10361904;28;20208;-75
2023/12/17 17:48:21;;;;;;;1.27;1.00;;;;;;;;;;10361758;28;20216;-75
2023/12/17 17:53:22;;;;;;;4.83;1.80;;;;;;;;;;10361745;28;20200;-75
2023/12/17 17:58:22;;;;;;;1.50;1.40;;;;;;;;;;10358296;28;20348;-75
2023/12/17 18:03:24;;;;;;;2.70;1.60;;;;;;;;;;10362191;28;20264;-75
2023/12/17 18:08:24;;;;;;;2.33;1.70;;;;;;;;;;10360978;28;20189;-75
2023/12/17 18:13:26;;;;;;;2.47;1.30;;;;;;;;;;10360668;28;20213;-75
2023/12/17 18:18:26;;;;;;;2.20;1.47;;;;;;;;;;10360204;28;20792;-75
2023/12/17 18:23:26;;;;;;;3.13;1.40;;;;;;;;;;10339287;28;20197;-75
2023/12/17 18:28:29;;;;;;;8.07;4.87;;;;;;;;;;10343253;28;20233;-75
2023/12/17 18:33:29;;;;;;;1.57;1.20;;;;;;;;;;10346929;28;20193;-75
2023/12/17 18:38:29;;;;;;;1.37;1.27;;;;;;;;;;10336037;28;20590;-75
2023/12/17 18:43:29;;;;;;;1.73;1.20;;;;;;;;;;10360708;28;20193;-75
2023/12/17 18:48:29;;;;;;;2.90;1.83;;;;;;;;;;10359945;28;20192;-75
2023/12/17 18:53:30;;;;;;;3.73;2.97;;;;;;;;;;10360206;28;20957;-75
2023/12/17 18:58:30;;;;;;;10.97;7.80;;;;;;;;;;10360097;28;20213;-75
2023/12/17 19:03:33;;;;;;;3.87;2.77;;;;;;;;;;10359656;28;20478;-76
2023/12/17 19:08:33;;;;;;;3.77;2.90;;;;;;;;;;10359475;28;20197;-75
2023/12/17 19:13:33;;;;;;;2.63;2.10;;;;;;;;;;10360383;28;20538;-75
2023/12/17 19:18:33;;;;;;;3.43;2.40;;;;;;;;;;10352179;28;20283;-76
2023/12/17 19:23:33;;;;;;;2.03;1.50;;;;;;;;;;10337785;28;20888;-75
2023/12/17 19:28:34;;;;;;;1.63;1.30;;;;;;;;;;10344867;28;20375;-76
2023/12/17 19:33:34;;;;;;;1.30;1.20;;;;;;;;;;10359491;28;20200;-75
2023/12/17 19:38:34;;;;;;;1.93;1.50;;;;;;;;;;10361994;28;20221;-76
2023/12/17 19:43:34;;;;;;;1.83;1.40;;;;;;;;;;10367158;28;20586;-75
2023/12/17 19:48:34;;;;;;;1.47;1.33;;;;;;;;;;10365577;28;20552;-75
2023/12/17 19:53:36;;;;;;;1.07;1.07;;;;;;;;;;10365232;28;20451;-75
2023/12/17 19:58:40;;;;;;;2.00;1.00;;;;;;;;;;10366382;28;20227;-75
2023/12/17 20:03:47;;;;;;;5.43;3.20;;;;;;;;;;10361275;28;20193;-75
2023/12/17 20:08:50;;;;;;;2.40;1.63;;;;;;;;;;10366017;28;20559;-76
2023/12/17 20:13:50;;;;;;;1.60;1.50;;;;;;;;;;10361662;28;20185;-75
2023/12/17 20:18:50;;;;;;;1.20;1.10;;;;;;;;;;10365110;28;20551;-75
2023/12/17 20:23:50;;;;;;;1.10;1.00;;;;;;;;;;10360786;28;20202;-75
2023/12/17 20:28:51;;;;;;;2.53;1.30;;;;;;;;;;10360800;28;20240;-75
2023/12/17 20:33:51;;;;;;;1.13;1.00;;;;;;;;;;10349781;28;20539;-75
2023/12/17 20:38:51;;;;;;;2.70;1.10;;;;;;;;;;10336431;28;20240;-75
2023/12/17 20:43:51;;;;;;;0.87;0.87;;;;;;;;;;10360033;28;20220;-75
2023/12/17 20:48:51;;;;;;;1.60;1.47;;;;;;;;;;10364380;28;20202;-76
2023/12/17 20:53:52;;;;;;;1.10;1.00;;;;;;;;;;10362924;28;20189;-76
2023/12/17 20:58:55;;;;;;;1.30;0.90;;;;;;;;;;10364006;28;20996;-75
2023/12/17 21:03:55;;;;;;;0.90;0.90;;;;;;;;;;10362854;28;20276;-75
2023/12/17 21:08:55;;;;;;;0.80;0.80;;;;;;;;;;10364278;28;20686;-75
2023/12/17 21:13:55;;;;;;;0.87;0.87;;;;;;;;;;10364448;28;20193;-76
2023/12/17 21:18:55;;;;;;;1.23;1.13;;;;;;;;;;10363966;28;20689;-75
2023/12/17 21:23:56;;;;;;;0.90;0.90;;;;;;;;;;10364471;28;20185;-75
2023/12/17 21:28:56;;;;;;;0.93;0.90;;;;;;;;;;10363109;28;20279;-75
2023/12/17 21:33:56;;;;;;;2.13;1.93;;;;;;;;;;10363812;28;20213;-75
2023/12/17 21:38:56;;;;;;;0.90;0.90;;;;;;;;;;10364035;28;20229;-75
2023/12/17 21:43:57;;;;;;;1.70;1.30;;;;;;;;;;10356127;28;20182;-76
2023/12/17 21:48:57;;;;;;;1.20;1.00;;;;;;;;;;10358927;28;20704;-76
2023/12/17 21:53:57;;;;;;;1.17;1.00;;;;;;;;;;10362660;28;20215;-76
2023/12/17 21:58:57;;;;;;;3.93;2.20;;;;;;;;;;10363004;28;20225;-76
2023/12/17 22:03:58;;;;;;;0.80;0.80;;;;;;;;;;10355546;28;20467;-76
2023/12/17 22:08:58;;;;;;;1.10;0.90;;;;;;;;;;10362546;28;20207;-76
2023/12/17 22:13:58;;;;;;;1.23;1.13;;;;;;;;;;10362081;28;20590;-76
2023/12/17 22:18:58;;;;;;;0.83;0.83;;;;;;;;;;10362142;28;20221;-75
2023/12/17 22:23:59;;;;;;;1.10;1.00;;;;;;;;;;10361770;28;20200;-76
2023/12/17 22:28:59;;;;;;;0.90;0.90;;;;;;;;;;10361118;28;20761;-76
2023/12/17 22:33:59;;;;;;;1.10;1.00;;;;;;;;;;10361256;28;20193;-76
2023/12/17 22:38:59;;;;;;;1.17;1.00;;;;;;;;;;10361798;28;20213;-76
2023/12/17 22:43:59;;;;;;;1.00;0.90;;;;;;;;;;10360615;28;20200;-76
2023/12/17 22:49:00;;;;;;;1.07;0.97;;;;;;;;;;10358572;28;20192;-76
2023/12/17 22:54:00;;;;;;;0.80;0.80;;;;;;;;;;10343826;28;20296;-76
2023/12/17 22:59:00;;;;;;;0.83;0.83;;;;;;;;;;10362747;28;20583;-76
2023/12/17 23:04:00;;;;;;;0.90;0.90;;;;;;;;;;10365389;28;20231;-76
2023/12/17 23:09:00;;;;;;;1.70;1.03;;;;;;;;;;10369565;28;20189;-76
2023/12/17 23:14:00;;;;;;;0.97;0.87;;;;;;;;;;10363499;28;20629;-76
2023/12/17 23:19:01;;;;;;;0.90;0.90;;;;;;;;;;10369372;28;20208;-76
2023/12/17 23:24:01;;;;;;;3.53;1.13;;;;;;;;;;10363384;28;20288;-76
2023/12/17 23:29:01;;;;;;;1.97;1.20;;;;;;;;;;10368099;28;20233;-75
2023/12/17 23:34:01;;;;;;;0.93;0.80;;;;;;;;;;10367816;28;20189;-76
2023/12/17 23:39:02;;;;;;;0.80;0.80;;;;;;;;;;10368022;28;20217;-76
2023/12/17 23:44:02;;;;;;;0.80;0.80;;;;;;;;;;10367256;28;20458;-76
2023/12/17 23:49:03;;;;;;;0.80;0.80;;;;;;;;;;10367418;28;20194;-76
2023/12/17 23:54:03;;;;;;;0.80;0.80;;;;;;;;;;10365402;28;20906;-76
2023/12/17 23:59:03;;;;;;;0.90;0.90;;;;;;;;;;10366997;28;20236;-76
